createdAt,value
2022-12-04T00:01:23.918Z,48.60
2022-12-04T00:04:26.795Z,45.90
2022-12-04T00:07:29.761Z,48.50
2022-12-04T00:10:32.662Z,41.00
2022-12-04T00:13:36.425Z,52.00
2022-12-04T00:16:39.351Z,48.30
2022-12-04T00:19:44.883Z,46.60
2022-12-04T00:22:47.739Z,47.00
2022-12-04T00:25:50.521Z,47.60
2022-12-04T00:28:53.742Z,43.50
2022-12-04T00:31:56.538Z,44.50
2022-12-04T00:34:59.399Z,37.00
2022-12-04T00:38:02.221Z,46.60
2022-12-04T00:41:05.300Z,42.90
2022-12-04T00:44:08.216Z,52.60
2022-12-04T00:47:10.999Z,47.30
2022-12-04T00:50:13.796Z,49.90
2022-12-04T00:53:16.940Z,47.20
2022-12-04T00:56:24.121Z,48.70
2022-12-04T00:59:26.975Z,44.30
2022-12-04T01:02:30.853Z,46.20
2022-12-04T01:05:42.047Z,45.00
2022-12-04T01:08:44.791Z,44.20
2022-12-04T01:11:47.622Z,46.20
2022-12-04T01:14:50.361Z,46.90
2022-12-04T01:17:53.143Z,45.40
2022-12-04T01:20:56.002Z,46.10
2022-12-04T01:23:59.871Z,45.70
2022-12-04T01:27:03.109Z,43.50
2022-12-04T01:30:06.519Z,44.60
2022-12-04T01:33:09.341Z,50.70
2022-12-04T01:36:19.080Z,47.60
2022-12-04T01:39:21.970Z,45.70
2022-12-04T01:42:25.402Z,49.40
2022-12-04T01:45:31.160Z,45.40
2022-12-04T01:48:39.168Z,48.50
2022-12-04T01:51:46.642Z,42.20
2022-12-04T01:54:54.189Z,46.10
2022-12-04T01:57:58.119Z,46.70
2022-12-04T02:01:08.506Z,43.80
2022-12-04T02:04:12.264Z,44.00
2022-12-04T02:07:15.102Z,40.60
2022-12-04T02:10:24.679Z,43.50
2022-12-04T02:13:35.666Z,49.70
2022-12-04T02:17:02.385Z,41.40
2022-12-04T02:20:54.903Z,38.30
2022-12-04T02:24:00.603Z,39.00
2022-12-04T02:27:09.145Z,43.40
2022-12-04T02:30:13.637Z,40.00
2022-12-04T02:33:23.919Z,43.00
2022-12-04T02:36:31.379Z,42.40
2022-12-04T02:39:44.677Z,40.10
2022-12-04T02:42:58.929Z,37.50
2022-12-04T02:46:18.132Z,38.80
2022-12-04T02:49:31.234Z,36.30
2022-12-04T02:52:38.902Z,18.70
2022-12-04T02:55:51.088Z,37.80
2022-12-04T02:59:02.482Z,43.40
2022-12-04T03:02:48.203Z,37.00
2022-12-04T03:05:51.018Z,36.60
2022-12-04T03:09:01.857Z,40.70
2022-12-04T03:12:11.559Z,40.10
2022-12-04T03:15:35.834Z,38.90
2022-12-04T03:19:07.411Z,37.50
2022-12-04T03:22:15.130Z,40.50
2022-12-04T03:25:18.043Z,37.10
2022-12-04T03:28:29.214Z,41.10
2022-12-04T03:31:50.455Z,37.20
2022-12-04T03:35:06.182Z,41.40
2022-12-04T03:38:21.332Z,35.90
2022-12-04T03:41:49.933Z,37.10
2022-12-04T03:45:19.794Z,37.20
2022-12-04T03:48:26.800Z,39.80
2022-12-04T03:51:41.706Z,36.10
2022-12-04T03:54:51.775Z,36.00
2022-12-04T03:58:00.114Z,37.00
2022-12-04T04:01:07.842Z,31.10
2022-12-04T04:04:16.186Z,38.10
2022-12-04T04:07:31.863Z,33.50
2022-12-04T04:10:38.250Z,35.80
2022-12-04T04:14:12.218Z,32.80
2022-12-04T04:17:38.857Z,31.60
2022-12-04T04:21:08.952Z,34.50
2022-12-04T04:24:26.072Z,28.50
2022-12-04T04:27:28.936Z,38.60
2022-12-04T04:30:34.355Z,31.40
2022-12-04T04:33:51.355Z,29.60
2022-12-04T04:37:13.253Z,31.60
2022-12-04T04:40:30.819Z,25.80
2022-12-04T04:43:54.402Z,31.90
2022-12-04T04:47:02.933Z,34.50
2022-12-04T04:50:09.358Z,32.20
2022-12-04T04:53:37.005Z,37.50
2022-12-04T04:56:44.433Z,31.20
2022-12-04T04:59:47.263Z,29.50
2022-12-04T05:02:50.562Z,30.30
2022-12-04T05:05:53.888Z,34.30
2022-12-04T05:08:56.768Z,31.50
2022-12-04T05:11:59.612Z,29.10
2022-12-04T05:15:02.632Z,31.30
2022-12-04T05:18:05.620Z,29.70
2022-12-04T05:21:16.422Z,29.30
2022-12-04T05:24:19.245Z,28.80
2022-12-04T05:27:22.776Z,31.40
2022-12-04T05:30:25.786Z,29.60
2022-12-04T05:33:29.766Z,16.00
2022-12-04T05:36:32.591Z,17.20
2022-12-04T05:39:35.829Z,25.30
2022-12-04T05:42:38.666Z,30.30
2022-12-04T05:45:41.569Z,26.20
2022-12-04T05:48:44.444Z,27.80
2022-12-04T05:51:47.283Z,31.20
2022-12-04T05:54:50.073Z,29.50
2022-12-04T05:57:52.833Z,29.40
2022-12-04T06:00:55.636Z,29.80
2022-12-04T06:03:58.560Z,29.60
2022-12-04T06:07:01.343Z,30.90
2022-12-04T06:10:05.191Z,31.70
2022-12-04T06:13:08.476Z,30.00
2022-12-04T06:16:20.464Z,27.60
2022-12-04T06:19:23.757Z,28.30
2022-12-04T06:22:26.565Z,28.50
2022-12-04T06:25:29.606Z,29.50
2022-12-04T06:28:32.348Z,32.60
2022-12-04T06:31:36.413Z,36.60
2022-12-04T06:34:39.397Z,43.60
2022-12-04T06:37:42.252Z,53.30
2022-12-04T06:40:45.021Z,32.20
2022-12-04T06:43:48.963Z,43.40
2022-12-04T06:46:54.693Z,29.90
2022-12-04T06:49:58.232Z,29.00
2022-12-04T06:53:07.958Z,28.80
2022-12-04T06:56:17.906Z,28.70
2022-12-04T06:59:20.708Z,29.50
2022-12-04T07:02:23.611Z,28.70
2022-12-04T07:05:27.685Z,29.10
2022-12-04T07:08:30.466Z,29.00
2022-12-04T07:11:34.232Z,28.90
2022-12-04T07:14:37.120Z,29.80
2022-12-04T07:17:39.954Z,32.10
2022-12-04T07:20:42.737Z,34.30
2022-12-04T07:23:46.091Z,28.50
2022-12-04T07:26:49.000Z,30.20
2022-12-04T07:29:53.234Z,28.50
2022-12-04T07:32:56.124Z,26.80
2022-12-04T07:36:00.842Z,29.10
2022-12-04T07:39:03.980Z,27.40
2022-12-04T07:42:06.724Z,28.00
2022-12-04T07:45:10.039Z,28.40
2022-12-04T07:48:12.852Z,24.20
2022-12-04T07:51:20.817Z,24.40
2022-12-04T07:54:23.621Z,26.40
2022-12-04T07:57:28.214Z,31.90
2022-12-04T08:00:31.023Z,27.90
2022-12-04T08:03:33.887Z,28.20
2022-12-04T08:06:37.625Z,34.40
2022-12-04T08:09:40.477Z,30.60
2022-12-04T08:12:43.291Z,29.90
2022-12-04T08:15:46.062Z,32.60
2022-12-04T08:18:48.961Z,35.70
2022-12-04T08:21:54.873Z,30.80
2022-12-04T08:24:57.652Z,44.00
2022-12-04T08:28:00.510Z,37.40
2022-12-04T08:31:11.857Z,33.00
2022-12-04T08:34:15.406Z,39.60
2022-12-04T08:37:18.408Z,40.00
2022-12-04T08:40:21.207Z,38.90
2022-12-04T08:43:24.017Z,43.60
2022-12-04T08:46:28.295Z,41.10
2022-12-04T08:49:31.222Z,35.90
2022-12-04T08:52:34.022Z,40.20
2022-12-04T08:55:36.772Z,33.00
2022-12-04T08:58:39.640Z,34.30
2022-12-04T09:01:42.492Z,34.90
2022-12-04T09:04:45.417Z,35.70
2022-12-04T09:07:48.328Z,36.40
2022-12-04T09:10:51.147Z,35.20
2022-12-04T09:13:54.460Z,38.20
2022-12-04T09:16:57.303Z,34.00
2022-12-04T09:20:01.418Z,35.50
2022-12-04T09:23:05.719Z,32.70
2022-12-04T09:26:26.842Z,33.40
2022-12-04T09:29:31.742Z,31.80
2022-12-04T09:32:35.279Z,34.90
2022-12-04T09:35:41.154Z,29.40
2022-12-04T09:38:46.487Z,31.80
2022-12-04T09:42:03.061Z,33.70
2022-12-04T09:45:17.831Z,33.50
2022-12-04T09:48:27.296Z,34.90
2022-12-04T09:51:32.271Z,33.60
2022-12-04T09:54:41.218Z,36.30
2022-12-04T09:57:47.647Z,33.00
2022-12-04T10:03:59.915Z,31.50
2022-12-04T10:07:25.314Z,32.80
2022-12-04T10:10:45.688Z,34.10
2022-12-04T10:13:48.500Z,23.70
2022-12-04T10:17:10.096Z,34.20
2022-12-04T10:20:28.344Z,34.60
2022-12-04T10:26:49.627Z,32.30
2022-12-04T10:29:58.426Z,32.70
2022-12-04T10:33:19.566Z,33.90
2022-12-04T10:36:28.426Z,30.30
2022-12-04T10:39:50.907Z,30.50
2022-12-04T10:43:14.485Z,32.00
2022-12-04T10:46:33.692Z,33.50
2022-12-04T10:49:37.746Z,29.90
2022-12-04T10:52:40.520Z,29.40
2022-12-04T10:55:43.494Z,35.60
2022-12-04T10:59:01.103Z,31.90
2022-12-04T11:02:24.118Z,31.10
2022-12-04T11:05:32.112Z,32.20
2022-12-04T11:08:50.186Z,27.80
2022-12-04T11:11:53.137Z,29.30
2022-12-04T11:15:08.341Z,33.90
2022-12-04T11:18:25.250Z,31.50
2022-12-04T11:21:30.832Z,26.60
2022-12-04T11:24:36.922Z,32.70
2022-12-04T11:27:39.765Z,21.80
2022-12-04T11:30:49.290Z,37.90
2022-12-04T11:34:00.280Z,30.90
2022-12-04T11:37:04.422Z,33.30
2022-12-04T11:40:16.992Z,32.10
2022-12-04T11:43:20.850Z,28.80
2022-12-04T11:46:27.393Z,17.90
2022-12-04T11:49:32.740Z,30.50
2022-12-04T11:52:53.328Z,34.20
2022-12-04T11:56:16.244Z,34.00
2022-12-04T11:59:43.056Z,36.10
2022-12-04T12:03:06.612Z,45.50
2022-12-04T12:06:32.832Z,46.20
2022-12-04T12:09:46.262Z,42.40
2022-12-04T12:12:58.366Z,38.80
2022-12-04T12:16:13.437Z,34.60
2022-12-04T12:19:22.598Z,33.40
2022-12-04T12:22:40.939Z,33.80
2022-12-04T12:26:00.514Z,36.60
2022-12-04T12:29:17.644Z,36.70
2022-12-04T12:32:29.569Z,35.20
2022-12-04T12:35:45.881Z,33.40
2022-12-04T12:39:16.490Z,36.00
2022-12-04T12:42:26.520Z,37.30
2022-12-04T12:45:48.015Z,36.70
2022-12-04T12:49:00.802Z,33.70
2022-12-04T12:52:14.812Z,34.80
2022-12-04T12:55:29.873Z,21.90
2022-12-04T12:58:36.544Z,34.40
2022-12-04T13:01:57.277Z,38.40
2022-12-04T13:05:11.026Z,42.50
2022-12-04T13:08:36.659Z,37.60
2022-12-04T13:11:40.600Z,35.50
2022-12-04T13:14:48.664Z,38.10
2022-12-04T13:17:55.387Z,38.40
2022-12-04T13:21:03.711Z,25.90
2022-12-04T13:24:31.672Z,35.30
2022-12-04T13:27:53.646Z,32.90
2022-12-04T13:31:27.891Z,36.90
2022-12-04T13:35:03.865Z,35.80
2022-12-04T13:38:28.729Z,32.10
2022-12-04T13:41:38.933Z,34.90
2022-12-04T13:44:41.860Z,33.80
2022-12-04T13:47:44.643Z,32.20
2022-12-04T13:50:47.564Z,30.10
2022-12-04T13:54:21.471Z,32.10
2022-12-04T13:57:25.713Z,39.00
2022-12-04T14:00:34.952Z,32.10
2022-12-04T14:03:48.604Z,28.10
2022-12-04T14:06:52.650Z,35.40
2022-12-04T14:09:58.016Z,36.70
2022-12-04T14:13:07.138Z,34.50
2022-12-04T14:16:22.201Z,35.10
2022-12-04T14:19:36.642Z,42.50
2022-12-04T14:22:43.864Z,39.30
2022-12-04T14:25:46.783Z,31.30
2022-12-04T14:28:50.586Z,30.00
2022-12-04T14:31:55.942Z,30.00
2022-12-04T14:34:59.398Z,33.40
2022-12-04T14:38:06.429Z,34.10
2022-12-04T14:44:29.761Z,38.90
2022-12-04T14:48:10.482Z,27.80
2022-12-04T14:51:33.327Z,33.00
2022-12-04T14:54:44.913Z,31.90
2022-12-04T14:57:59.821Z,27.60
2022-12-04T15:01:05.961Z,30.50
2022-12-04T15:04:35.439Z,33.70
2022-12-04T15:07:48.100Z,33.20
2022-12-04T15:14:14.022Z,28.40
2022-12-04T15:17:18.826Z,34.20
2022-12-04T15:20:21.864Z,31.50
2022-12-04T15:23:34.000Z,38.30
2022-12-04T15:26:38.013Z,30.80
2022-12-04T15:29:48.386Z,35.60
2022-12-04T15:32:53.608Z,21.10
2022-12-04T15:36:05.593Z,8.60
2022-12-04T15:39:14.123Z,29.30
2022-12-04T15:42:25.961Z,11.80
2022-12-04T15:45:32.256Z,25.90
2022-12-04T15:48:35.062Z,24.80
2022-12-04T15:51:37.972Z,21.50
2022-12-04T15:54:56.699Z,20.60
2022-12-04T15:58:24.725Z,24.50
2022-12-04T16:01:28.149Z,17.30
2022-12-04T16:04:35.616Z,25.70
2022-12-04T16:07:57.832Z,22.50
2022-12-04T16:11:08.004Z,14.80
2022-12-04T16:14:18.810Z,26.00
2022-12-04T16:17:31.768Z,25.00
2022-12-04T16:20:36.509Z,25.10
2022-12-04T16:23:39.293Z,28.20
2022-12-04T16:26:42.221Z,25.10
2022-12-04T16:29:45.537Z,28.40
2022-12-04T16:32:48.575Z,28.40
2022-12-04T16:35:51.373Z,28.00
2022-12-04T16:38:54.260Z,23.60
2022-12-04T16:41:57.236Z,25.10
2022-12-04T16:45:00.162Z,22.40
2022-12-04T16:48:03.254Z,19.30
2022-12-04T16:51:06.074Z,10.10
2022-12-04T16:54:10.479Z,25.10
2022-12-04T16:57:13.323Z,26.70
2022-12-04T17:00:17.760Z,23.50
2022-12-04T17:03:29.646Z,23.50
2022-12-04T17:06:33.262Z,25.00
2022-12-04T17:09:36.022Z,27.60
2022-12-04T17:12:39.777Z,26.00
2022-12-04T17:15:42.543Z,32.50
2022-12-04T17:18:45.351Z,26.40
2022-12-04T17:21:48.166Z,28.30
2022-12-04T17:24:55.978Z,25.60
2022-12-04T17:27:59.196Z,26.10
2022-12-04T17:31:04.654Z,25.30
2022-12-04T17:34:07.529Z,25.00
2022-12-04T17:37:10.410Z,22.10
2022-12-04T17:40:14.770Z,22.70
2022-12-04T17:43:21.889Z,22.00
2022-12-04T17:46:25.251Z,15.10
2022-12-04T17:49:28.240Z,21.80
2022-12-04T17:52:31.652Z,27.20
2022-12-04T17:55:35.173Z,31.50
2022-12-04T17:58:38.425Z,29.50
2022-12-04T18:01:41.237Z,25.20
2022-12-04T18:04:44.050Z,20.90
2022-12-04T18:07:46.943Z,23.10
2022-12-04T18:10:50.458Z,23.30
2022-12-04T18:13:59.444Z,24.20
2022-12-04T18:17:02.914Z,24.70
2022-12-04T18:20:07.049Z,24.00
2022-12-04T18:23:10.221Z,14.30
2022-12-04T18:26:15.353Z,29.20
2022-12-04T18:29:21.994Z,17.80
2022-12-04T18:32:24.788Z,16.30
2022-12-04T18:35:27.589Z,16.10
2022-12-04T18:38:32.105Z,21.20
2022-12-04T18:41:35.339Z,15.20
2022-12-04T18:44:38.152Z,18.90
2022-12-04T18:47:41.057Z,18.40
2022-12-04T18:50:43.821Z,58.20
2022-12-04T18:53:47.773Z,34.60
2022-12-04T18:56:51.422Z,36.50
2022-12-04T18:59:54.903Z,19.40
2022-12-04T19:02:58.049Z,37.30
2022-12-04T19:06:01.720Z,29.90
2022-12-04T19:09:11.331Z,20.30
2022-12-04T19:12:14.742Z,18.30
2022-12-04T19:15:17.584Z,12.70
2022-12-04T19:18:20.398Z,21.50
2022-12-04T19:21:24.132Z,21.80
2022-12-04T19:24:26.868Z,28.20
2022-12-04T19:27:29.688Z,16.70
2022-12-04T19:30:33.831Z,21.50
2022-12-04T19:33:37.361Z,19.90
2022-12-04T19:36:41.387Z,40.50
2022-12-04T19:39:44.370Z,33.70
2022-12-04T19:42:47.372Z,14.40
2022-12-04T19:45:50.436Z,26.80
2022-12-04T19:48:56.892Z,30.80
2022-12-04T19:51:59.709Z,16.20
2022-12-04T19:55:02.596Z,34.10
2022-12-04T19:58:05.400Z,32.10
2022-12-04T20:01:10.763Z,29.80
2022-12-04T20:04:13.627Z,33.00
2022-12-04T20:07:16.482Z,36.90
2022-12-04T20:10:19.436Z,34.30
2022-12-04T20:13:22.265Z,21.00
2022-12-04T20:16:26.690Z,15.30
2022-12-04T20:19:29.596Z,31.80
2022-12-04T20:22:32.502Z,35.30
2022-12-04T20:25:36.410Z,27.10
2022-12-04T20:28:41.230Z,23.50
2022-12-04T20:31:46.825Z,30.10
2022-12-04T20:34:49.655Z,35.10
2022-12-04T20:37:52.399Z,12.90
2022-12-04T20:40:55.220Z,30.70
2022-12-04T20:44:04.921Z,32.90
2022-12-04T20:47:07.817Z,44.90
2022-12-04T20:50:11.219Z,46.30
2022-12-04T20:53:14.085Z,23.20
2022-12-04T20:56:18.724Z,17.30
2022-12-04T20:59:23.357Z,31.50
2022-12-04T21:02:26.328Z,8.30
2022-12-04T21:05:29.112Z,25.40
2022-12-04T21:08:51.205Z,34.60
2022-12-04T21:11:55.685Z,11.10
2022-12-04T21:15:17.419Z,31.70
2022-12-04T21:18:20.242Z,17.30
2022-12-04T21:21:23.076Z,31.50
2022-12-04T21:24:30.497Z,30.00
2022-12-04T21:27:33.317Z,20.70
2022-12-04T21:30:36.126Z,13.60
2022-12-04T21:33:38.926Z,35.70
2022-12-04T21:36:42.783Z,30.30
2022-12-04T21:39:45.710Z,27.30
2022-12-04T21:42:48.467Z,11.50
2022-12-04T21:46:09.375Z,19.00
2022-12-04T21:49:13.916Z,26.30
2022-12-04T21:52:17.784Z,21.00
2022-12-04T21:55:20.593Z,6.60
2022-12-04T21:58:26.098Z,27.00
2022-12-04T22:01:29.080Z,31.30
2022-12-04T22:04:31.944Z,30.80
2022-12-04T22:07:34.785Z,36.90
2022-12-04T22:10:45.752Z,36.90
2022-12-04T22:13:48.658Z,34.30
2022-12-04T22:16:52.523Z,36.90
2022-12-04T22:19:55.715Z,39.80
2022-12-04T22:22:59.254Z,17.90
2022-12-04T22:26:10.732Z,13.00
2022-12-04T22:29:42.042Z,29.60
2022-12-04T22:32:36.881Z,26.20
2022-12-04T22:35:39.673Z,32.00
2022-12-04T22:39:05.964Z,35.20
2022-12-04T22:42:05.684Z,31.90
2022-12-04T22:45:09.758Z,40.30
2022-12-04T22:48:12.532Z,34.50
2022-12-04T22:51:18.778Z,36.00
2022-12-04T22:54:21.636Z,39.40
2022-12-04T22:57:25.057Z,44.30
2022-12-04T23:00:28.426Z,35.10
2022-12-04T23:03:31.223Z,33.90
2022-12-04T23:06:34.553Z,32.90
2022-12-04T23:09:37.523Z,28.70
2022-12-04T23:12:40.361Z,29.70
2022-12-04T23:15:43.158Z,28.80
2022-12-04T23:18:46.014Z,30.30
2022-12-04T23:21:56.409Z,29.50
2022-12-04T23:25:00.360Z,28.80
2022-12-04T23:28:03.202Z,26.90
2022-12-04T23:31:06.286Z,28.80
2022-12-04T23:34:09.100Z,27.00
2022-12-04T23:37:24.164Z,25.20
2022-12-04T23:40:26.794Z,24.50
2022-12-04T23:43:29.678Z,27.10
2022-12-04T23:46:33.243Z,27.50
2022-12-04T23:49:36.176Z,25.90
2022-12-04T23:52:39.056Z,24.60
2022-12-04T23:55:41.716Z,28.20
2022-12-04T23:58:45.772Z,26.00
